sensor_id;sensor_type;location;lat;lon;timestamp;P1;durP1;ratioP1;P2;durP2;ratioP2
40765;SDS011;26474;52.556;13.420;2022-07-10T00:00:12;3.73;;;1.47;;
40765;SDS011;26474;52.556;13.420;2022-07-10T00:02:40;1.77;;;1.10;;
40765;SDS011;26474;52.556;13.420;2022-07-10T00:05:08;4.67;;;1.30;;
40765;SDS011;26474;52.556;13.420;2022-07-10T00:07:41;2.17;;;1.30;;
40765;SDS011;26474;52.556;13.420;2022-07-10T00:10:07;3.57;;;1.30;;
40765;SDS011;26474;52.556;13.420;2022-07-10T00:12:34;3.40;;;1.30;;
40765;SDS011;26474;52.556;13.420;2022-07-10T00:15:00;2.77;;;1.07;;
40765;SDS011;26474;52.556;13.420;2022-07-10T00:17:27;3.23;;;1.27;;
40765;SDS011;26474;52.556;13.420;2022-07-10T00:19:54;1.83;;;1.00;;
40765;SDS011;26474;52.556;13.420;2022-07-10T00:22:20;1.87;;;1.20;;
40765;SDS011;26474;52.556;13.420;2022-07-10T00:24:47;2.70;;;1.00;;
40765;SDS011;26474;52.556;13.420;2022-07-10T00:27:13;2.73;;;1.10;;
40765;SDS011;26474;52.556;13.420;2022-07-10T00:29:40;3.37;;;1.30;;
40765;SDS011;26474;52.556;13.420;2022-07-10T00:32:07;2.93;;;1.23;;
40765;SDS011;26474;52.556;13.420;2022-07-10T00:34:34;4.63;;;1.03;;
40765;SDS011;26474;52.556;13.420;2022-07-10T00:37:01;2.73;;;1.13;;
40765;SDS011;26474;52.556;13.420;2022-07-10T00:39:28;2.47;;;1.03;;
40765;SDS011;26474;52.556;13.420;2022-07-10T00:41:55;3.23;;;1.10;;
40765;SDS011;26474;52.556;13.420;2022-07-10T00:44:31;2.83;;;0.90;;
40765;SDS011;26474;52.556;13.420;2022-07-10T00:46:57;2.73;;;1.20;;
40765;SDS011;26474;52.556;13.420;2022-07-10T00:49:24;4.50;;;1.37;;
40765;SDS011;26474;52.556;13.420;2022-07-10T00:51:50;2.70;;;1.30;;
40765;SDS011;26474;52.556;13.420;2022-07-10T00:54:17;2.63;;;1.20;;
40765;SDS011;26474;52.556;13.420;2022-07-10T00:56:44;3.80;;;1.30;;
40765;SDS011;26474;52.556;13.420;2022-07-10T00:59:10;2.87;;;1.00;;
40765;SDS011;26474;52.556;13.420;2022-07-10T01:01:37;2.67;;;1.17;;
40765;SDS011;26474;52.556;13.420;2022-07-10T01:04:03;2.80;;;1.13;;
40765;SDS011;26474;52.556;13.420;2022-07-10T01:06:30;1.77;;;1.13;;
40765;SDS011;26474;52.556;13.420;2022-07-10T01:08:56;2.87;;;1.37;;
40765;SDS011;26474;52.556;13.420;2022-07-10T01:11:23;3.47;;;1.20;;
40765;SDS011;26474;52.556;13.420;2022-07-10T01:13:49;4.27;;;1.20;;
40765;SDS011;26474;52.556;13.420;2022-07-10T01:16:16;3.17;;;1.20;;
40765;SDS011;26474;52.556;13.420;2022-07-10T01:18:43;2.20;;;1.37;;
40765;SDS011;26474;52.556;13.420;2022-07-10T01:21:23;2.07;;;0.90;;
40765;SDS011;26474;52.556;13.420;2022-07-10T01:23:59;2.87;;;1.10;;
40765;SDS011;26474;52.556;13.420;2022-07-10T01:26:29;1.57;;;0.90;;
40765;SDS011;26474;52.556;13.420;2022-07-10T01:28:56;2.30;;;0.90;;
40765;SDS011;26474;52.556;13.420;2022-07-10T01:31:25;3.53;;;1.10;;
40765;SDS011;26474;52.556;13.420;2022-07-10T01:33:53;3.00;;;1.00;;
40765;SDS011;26474;52.556;13.420;2022-07-10T01:36:21;3.63;;;1.10;;
40765;SDS011;26474;52.556;13.420;2022-07-10T01:38:50;2.10;;;0.80;;
40765;SDS011;26474;52.556;13.420;2022-07-10T01:41:18;3.93;;;1.40;;
40765;SDS011;26474;52.556;13.420;2022-07-10T01:43:44;5.50;;;1.30;;
40765;SDS011;26474;52.556;13.420;2022-07-10T01:46:11;3.77;;;1.10;;
40765;SDS011;26474;52.556;13.420;2022-07-10T01:48:39;2.93;;;1.00;;
40765;SDS011;26474;52.556;13.420;2022-07-10T01:51:07;2.13;;;1.00;;
40765;SDS011;26474;52.556;13.420;2022-07-10T01:53:34;3.10;;;0.90;;
40765;SDS011;26474;52.556;13.420;2022-07-10T01:56:03;1.93;;;0.80;;
40765;SDS011;26474;52.556;13.420;2022-07-10T01:58:31;1.90;;;0.97;;
40765;SDS011;26474;52.556;13.420;2022-07-10T02:00:58;1.73;;;0.77;;
40765;SDS011;26474;52.556;13.420;2022-07-10T02:03:25;3.80;;;1.00;;
40765;SDS011;26474;52.556;13.420;2022-07-10T02:06:10;2.20;;;0.90;;
40765;SDS011;26474;52.556;13.420;2022-07-10T02:08:36;2.27;;;0.93;;
40765;SDS011;26474;52.556;13.420;2022-07-10T02:11:03;1.10;;;0.87;;
40765;SDS011;26474;52.556;13.420;2022-07-10T02:13:30;1.63;;;0.80;;
40765;SDS011;26474;52.556;13.420;2022-07-10T02:15:58;2.77;;;1.17;;
40765;SDS011;26474;52.556;13.420;2022-07-10T02:18:24;2.33;;;0.77;;
40765;SDS011;26474;52.556;13.420;2022-07-10T02:20:52;2.07;;;0.97;;
40765;SDS011;26474;52.556;13.420;2022-07-10T02:23:18;1.47;;;0.60;;
40765;SDS011;26474;52.556;13.420;2022-07-10T02:25:45;1.43;;;1.00;;
40765;SDS011;26474;52.556;13.420;2022-07-10T02:28:11;1.40;;;0.80;;
40765;SDS011;26474;52.556;13.420;2022-07-10T02:30:38;2.00;;;0.90;;
40765;SDS011;26474;52.556;13.420;2022-07-10T02:33:04;1.20;;;0.70;;
40765;SDS011;26474;52.556;13.420;2022-07-10T02:35:31;3.03;;;0.80;;
40765;SDS011;26474;52.556;13.420;2022-07-10T02:37:57;1.40;;;0.50;;
40765;SDS011;26474;52.556;13.420;2022-07-10T02:40:23;1.97;;;0.80;;
40765;SDS011;26474;52.556;13.420;2022-07-10T02:42:50;0.60;;;0.57;;
40765;SDS011;26474;52.556;13.420;2022-07-10T02:45:17;3.50;;;1.00;;
40765;SDS011;26474;52.556;13.420;2022-07-10T02:47:44;2.90;;;0.73;;
40765;SDS011;26474;52.556;13.420;2022-07-10T02:50:10;3.27;;;0.80;;
40765;SDS011;26474;52.556;13.420;2022-07-10T02:52:36;2.30;;;0.83;;
40765;SDS011;26474;52.556;13.420;2022-07-10T02:55:03;1.70;;;0.90;;
40765;SDS011;26474;52.556;13.420;2022-07-10T02:57:30;2.80;;;1.10;;
40765;SDS011;26474;52.556;13.420;2022-07-10T02:59:56;2.33;;;0.80;;
40765;SDS011;26474;52.556;13.420;2022-07-10T03:02:22;2.83;;;1.20;;
40765;SDS011;26474;52.556;13.420;2022-07-10T03:04:49;0.93;;;0.77;;
40765;SDS011;26474;52.556;13.420;2022-07-10T03:07:15;2.50;;;0.97;;
40765;SDS011;26474;52.556;13.420;2022-07-10T03:09:42;2.40;;;0.80;;
40765;SDS011;26474;52.556;13.420;2022-07-10T03:12:08;3.13;;;1.00;;
40765;SDS011;26474;52.556;13.420;2022-07-10T03:14:34;2.60;;;0.97;;
40765;SDS011;26474;52.556;13.420;2022-07-10T03:17:01;1.90;;;0.90;;
40765;SDS011;26474;52.556;13.420;2022-07-10T03:19:27;2.63;;;0.90;;
40765;SDS011;26474;52.556;13.420;2022-07-10T03:21:54;2.50;;;1.00;;
40765;SDS011;26474;52.556;13.420;2022-07-10T03:24:20;0.90;;;0.67;;
40765;SDS011;26474;52.556;13.420;2022-07-10T03:26:47;1.90;;;0.80;;
40765;SDS011;26474;52.556;13.420;2022-07-10T03:29:13;2.87;;;0.90;;
40765;SDS011;26474;52.556;13.420;2022-07-10T03:31:46;1.20;;;0.70;;
40765;SDS011;26474;52.556;13.420;2022-07-10T03:34:12;2.97;;;0.90;;
40765;SDS011;26474;52.556;13.420;2022-07-10T03:36:39;2.00;;;0.93;;
40765;SDS011;26474;52.556;13.420;2022-07-10T03:39:05;3.03;;;1.00;;
40765;SDS011;26474;52.556;13.420;2022-07-10T03:41:32;1.47;;;0.83;;
40765;SDS011;26474;52.556;13.420;2022-07-10T03:43:58;3.20;;;0.97;;
40765;SDS011;26474;52.556;13.420;2022-07-10T03:46:24;2.80;;;0.93;;
40765;SDS011;26474;52.556;13.420;2022-07-10T03:48:51;2.53;;;1.10;;
40765;SDS011;26474;52.556;13.420;2022-07-10T03:51:18;2.63;;;1.00;;
40765;SDS011;26474;52.556;13.420;2022-07-10T03:53:44;2.10;;;0.90;;
40765;SDS011;26474;52.556;13.420;2022-07-10T03:56:11;2.07;;;0.80;;
40765;SDS011;26474;52.556;13.420;2022-07-10T03:58:57;2.47;;;1.10;;
40765;SDS011;26474;52.556;13.420;2022-07-10T04:01:24;1.63;;;0.77;;
40765;SDS011;26474;52.556;13.420;2022-07-10T04:03:50;1.60;;;1.00;;
40765;SDS011;26474;52.556;13.420;2022-07-10T04:06:17;1.93;;;0.83;;
40765;SDS011;26474;52.556;13.420;2022-07-10T04:08:43;4.33;;;1.37;;
40765;SDS011;26474;52.556;13.420;2022-07-10T04:11:09;1.73;;;0.80;;
40765;SDS011;26474;52.556;13.420;2022-07-10T04:13:36;2.37;;;1.00;;
40765;SDS011;26474;52.556;13.420;2022-07-10T04:16:02;2.23;;;0.80;;
40765;SDS011;26474;52.556;13.420;2022-07-10T04:18:29;2.80;;;1.00;;
40765;SDS011;26474;52.556;13.420;2022-07-10T04:20:56;2.10;;;0.97;;
40765;SDS011;26474;52.556;13.420;2022-07-10T04:23:22;1.33;;;0.83;;
40765;SDS011;26474;52.556;13.420;2022-07-10T04:25:49;3.00;;;1.20;;
40765;SDS011;26474;52.556;13.420;2022-07-10T04:28:15;2.50;;;0.93;;
40765;SDS011;26474;52.556;13.420;2022-07-10T04:30:42;1.73;;;0.90;;
40765;SDS011;26474;52.556;13.420;2022-07-10T04:33:08;3.40;;;1.00;;
40765;SDS011;26474;52.556;13.420;2022-07-10T04:35:35;1.37;;;0.80;;
40765;SDS011;26474;52.556;13.420;2022-07-10T04:38:01;1.87;;;0.90;;
40765;SDS011;26474;52.556;13.420;2022-07-10T04:40:27;2.50;;;1.07;;
40765;SDS011;26474;52.556;13.420;2022-07-10T04:42:54;1.60;;;1.10;;
40765;SDS011;26474;52.556;13.420;2022-07-10T04:45:20;2.73;;;1.00;;
40765;SDS011;26474;52.556;13.420;2022-07-10T04:47:47;2.40;;;1.00;;
40765;SDS011;26474;52.556;13.420;2022-07-10T04:50:13;1.00;;;0.77;;
40765;SDS011;26474;52.556;13.420;2022-07-10T04:52:40;2.10;;;1.00;;
40765;SDS011;26474;52.556;13.420;2022-07-10T04:55:06;1.53;;;1.00;;
40765;SDS011;26474;52.556;13.420;2022-07-10T04:57:33;4.63;;;0.87;;
40765;SDS011;26474;52.556;13.420;2022-07-10T04:59:59;2.30;;;0.80;;
40765;SDS011;26474;52.556;13.420;2022-07-10T05:02:26;3.50;;;1.20;;
40765;SDS011;26474;52.556;13.420;2022-07-10T05:04:53;3.47;;;1.00;;
40765;SDS011;26474;52.556;13.420;2022-07-10T05:07:19;5.50;;;1.20;;
40765;SDS011;26474;52.556;13.420;2022-07-10T05:09:45;1.43;;;1.00;;
40765;SDS011;26474;52.556;13.420;2022-07-10T05:12:12;2.40;;;1.10;;
40765;SDS011;26474;52.556;13.420;2022-07-10T05:14:38;3.03;;;1.10;;
40765;SDS011;26474;52.556;13.420;2022-07-10T05:17:05;2.40;;;0.90;;
40765;SDS011;26474;52.556;13.420;2022-07-10T05:19:31;2.80;;;1.30;;
40765;SDS011;26474;52.556;13.420;2022-07-10T05:21:58;3.73;;;1.17;;
40765;SDS011;26474;52.556;13.420;2022-07-10T05:24:24;3.97;;;1.20;;
40765;SDS011;26474;52.556;13.420;2022-07-10T05:26:50;2.40;;;1.20;;
40765;SDS011;26474;52.556;13.420;2022-07-10T05:29:17;3.30;;;1.00;;
40765;SDS011;26474;52.556;13.420;2022-07-10T05:31:43;4.73;;;1.40;;
40765;SDS011;26474;52.556;13.420;2022-07-10T05:34:10;1.90;;;0.90;;
40765;SDS011;26474;52.556;13.420;2022-07-10T05:39:28;3.17;;;1.27;;
40765;SDS011;26474;52.556;13.420;2022-07-10T05:41:54;2.20;;;1.00;;
40765;SDS011;26474;52.556;13.420;2022-07-10T05:44:22;1.80;;;1.17;;
40765;SDS011;26474;52.556;13.420;2022-07-10T05:46:48;3.03;;;1.40;;
40765;SDS011;26474;52.556;13.420;2022-07-10T05:49:15;4.60;;;1.63;;
40765;SDS011;26474;52.556;13.420;2022-07-10T05:51:41;4.43;;;1.33;;
40765;SDS011;26474;52.556;13.420;2022-07-10T05:54:10;2.27;;;0.97;;
40765;SDS011;26474;52.556;13.420;2022-07-10T05:56:37;5.43;;;1.50;;
40765;SDS011;26474;52.556;13.420;2022-07-10T05:59:04;2.80;;;1.20;;
40765;SDS011;26474;52.556;13.420;2022-07-10T06:01:30;2.43;;;1.10;;
40765;SDS011;26474;52.556;13.420;2022-07-10T06:03:57;5.87;;;1.33;;
40765;SDS011;26474;52.556;13.420;2022-07-10T06:06:24;3.63;;;1.37;;
40765;SDS011;26474;52.556;13.420;2022-07-10T06:08:50;3.47;;;1.13;;
40765;SDS011;26474;52.556;13.420;2022-07-10T06:11:17;2.13;;;1.07;;
40765;SDS011;26474;52.556;13.420;2022-07-10T06:13:43;2.13;;;1.07;;
40765;SDS011;26474;52.556;13.420;2022-07-10T06:16:09;3.03;;;1.20;;
40765;SDS011;26474;52.556;13.420;2022-07-10T06:18:36;3.23;;;1.30;;
40765;SDS011;26474;52.556;13.420;2022-07-10T06:21:03;4.27;;;1.30;;
40765;SDS011;26474;52.556;13.420;2022-07-10T06:23:30;3.50;;;1.73;;
40765;SDS011;26474;52.556;13.420;2022-07-10T06:25:56;2.73;;;1.10;;
40765;SDS011;26474;52.556;13.420;2022-07-10T06:28:22;3.73;;;1.30;;
40765;SDS011;26474;52.556;13.420;2022-07-10T06:30:49;2.07;;;1.13;;
40765;SDS011;26474;52.556;13.420;2022-07-10T06:33:20;3.57;;;1.50;;
40765;SDS011;26474;52.556;13.420;2022-07-10T06:35:46;2.20;;;1.30;;
40765;SDS011;26474;52.556;13.420;2022-07-10T06:38:13;2.43;;;1.17;;
40765;SDS011;26474;52.556;13.420;2022-07-10T06:40:40;4.57;;;1.70;;
40765;SDS011;26474;52.556;13.420;2022-07-10T06:43:08;3.70;;;1.23;;
40765;SDS011;26474;52.556;13.420;2022-07-10T06:45:34;5.03;;;1.33;;
40765;SDS011;26474;52.556;13.420;2022-07-10T06:48:01;3.57;;;1.57;;
40765;SDS011;26474;52.556;13.420;2022-07-10T06:50:28;3.60;;;1.40;;
40765;SDS011;26474;52.556;13.420;2022-07-10T06:53:00;2.80;;;1.00;;
40765;SDS011;26474;52.556;13.420;2022-07-10T06:55:28;3.03;;;1.37;;
40765;SDS011;26474;52.556;13.420;2022-07-10T06:57:56;3.77;;;1.67;;
40765;SDS011;26474;52.556;13.420;2022-07-10T07:00:23;6.10;;;1.10;;
40765;SDS011;26474;52.556;13.420;2022-07-10T07:02:50;5.33;;;1.20;;
40765;SDS011;26474;52.556;13.420;2022-07-10T07:05:17;4.80;;;1.43;;
40765;SDS011;26474;52.556;13.420;2022-07-10T07:07:44;4.27;;;1.70;;
40765;SDS011;26474;52.556;13.420;2022-07-10T07:10:10;6.53;;;1.47;;
40765;SDS011;26474;52.556;13.420;2022-07-10T07:12:37;3.90;;;1.37;;
40765;SDS011;26474;52.556;13.420;2022-07-10T07:15:04;2.97;;;1.37;;
40765;SDS011;26474;52.556;13.420;2022-07-10T07:17:32;3.53;;;1.20;;
40765;SDS011;26474;52.556;13.420;2022-07-10T07:20:12;4.23;;;1.70;;
40765;SDS011;26474;52.556;13.420;2022-07-10T07:22:57;3.20;;;1.40;;
40765;SDS011;26474;52.556;13.420;2022-07-10T07:25:35;4.40;;;1.50;;
40765;SDS011;26474;52.556;13.420;2022-07-10T07:28:04;2.30;;;1.20;;
40765;SDS011;26474;52.556;13.420;2022-07-10T07:30:30;4.80;;;1.33;;
40765;SDS011;26474;52.556;13.420;2022-07-10T07:32:57;3.47;;;1.30;;
40765;SDS011;26474;52.556;13.420;2022-07-10T07:35:23;2.77;;;1.20;;
40765;SDS011;26474;52.556;13.420;2022-07-10T07:37:50;4.63;;;1.40;;
40765;SDS011;26474;52.556;13.420;2022-07-10T07:40:20;4.00;;;1.33;;
40765;SDS011;26474;52.556;13.420;2022-07-10T07:42:53;4.10;;;1.50;;
40765;SDS011;26474;52.556;13.420;2022-07-10T07:45:21;5.37;;;1.37;;
40765;SDS011;26474;52.556;13.420;2022-07-10T07:47:52;3.87;;;1.63;;
40765;SDS011;26474;52.556;13.420;2022-07-10T07:50:24;3.33;;;1.50;;
40765;SDS011;26474;52.556;13.420;2022-07-10T07:52:55;2.87;;;1.20;;
40765;SDS011;26474;52.556;13.420;2022-07-10T07:55:21;3.97;;;1.83;;
40765;SDS011;26474;52.556;13.420;2022-07-10T07:57:51;4.00;;;1.67;;
40765;SDS011;26474;52.556;13.420;2022-07-10T08:00:19;2.97;;;1.17;;
40765;SDS011;26474;52.556;13.420;2022-07-10T08:02:49;4.03;;;1.53;;
40765;SDS011;26474;52.556;13.420;2022-07-10T08:05:16;3.03;;;1.57;;
40765;SDS011;26474;52.556;13.420;2022-07-10T08:07:47;3.80;;;1.50;;
40765;SDS011;26474;52.556;13.420;2022-07-10T08:10:16;4.53;;;1.37;;
40765;SDS011;26474;52.556;13.420;2022-07-10T08:12:44;5.10;;;1.43;;
40765;SDS011;26474;52.556;13.420;2022-07-10T08:15:13;6.87;;;1.63;;
40765;SDS011;26474;52.556;13.420;2022-07-10T08:17:40;6.17;;;1.63;;
40765;SDS011;26474;52.556;13.420;2022-07-10T08:20:09;2.88;;;1.45;;
40765;SDS011;26474;52.556;13.420;2022-07-10T08:22:38;4.88;;;1.65;;
40765;SDS011;26474;52.556;13.420;2022-07-10T08:25:05;5.73;;;1.57;;
40765;SDS011;26474;52.556;13.420;2022-07-10T08:27:32;5.55;;;1.70;;
40765;SDS011;26474;52.556;13.420;2022-07-10T08:29:59;2.63;;;1.10;;
40765;SDS011;26474;52.556;13.420;2022-07-10T08:32:26;3.72;;;1.17;;
40765;SDS011;26474;52.556;13.420;2022-07-10T08:34:53;3.85;;;1.40;;
40765;SDS011;26474;52.556;13.420;2022-07-10T08:37:20;2.95;;;1.33;;
40765;SDS011;26474;52.556;13.420;2022-07-10T08:39:46;3.97;;;1.40;;
40765;SDS011;26474;52.556;13.420;2022-07-10T08:42:13;2.95;;;1.50;;
40765;SDS011;26474;52.556;13.420;2022-07-10T08:44:41;2.85;;;1.15;;
40765;SDS011;26474;52.556;13.420;2022-07-10T08:47:08;2.40;;;1.30;;
40765;SDS011;26474;52.556;13.420;2022-07-10T08:49:34;2.10;;;1.20;;
40765;SDS011;26474;52.556;13.420;2022-07-10T08:54:32;2.63;;;1.23;;
40765;SDS011;26474;52.556;13.420;2022-07-10T08:57:00;1.83;;;1.23;;
40765;SDS011;26474;52.556;13.420;2022-07-10T08:59:29;2.83;;;1.33;;
40765;SDS011;26474;52.556;13.420;2022-07-10T09:01:57;4.05;;;1.30;;
40765;SDS011;26474;52.556;13.420;2022-07-10T09:04:25;2.92;;;1.35;;
40765;SDS011;26474;52.556;13.420;2022-07-10T09:06:53;2.90;;;1.40;;
40765;SDS011;26474;52.556;13.420;2022-07-10T09:09:20;3.63;;;1.45;;
40765;SDS011;26474;52.556;13.420;2022-07-10T09:11:47;3.47;;;1.50;;
40765;SDS011;26474;52.556;13.420;2022-07-10T09:14:15;4.63;;;1.70;;
40765;SDS011;26474;52.556;13.420;2022-07-10T09:16:58;3.58;;;1.38;;
40765;SDS011;26474;52.556;13.420;2022-07-10T09:19:28;2.57;;;1.30;;
40765;SDS011;26474;52.556;13.420;2022-07-10T09:21:59;2.78;;;1.08;;
40765;SDS011;26474;52.556;13.420;2022-07-10T09:24:37;3.10;;;1.40;;
40765;SDS011;26474;52.556;13.420;2022-07-10T09:27:05;4.60;;;1.37;;
40765;SDS011;26474;52.556;13.420;2022-07-10T09:29:34;2.95;;;1.38;;
40765;SDS011;26474;52.556;13.420;2022-07-10T09:32:12;1.80;;;1.02;;
40765;SDS011;26474;52.556;13.420;2022-07-10T09:34:42;3.17;;;1.35;;
40765;SDS011;26474;52.556;13.420;2022-07-10T09:52:54;3.30;;;1.63;;
40765;SDS011;26474;52.556;13.420;2022-07-10T09:55:26;4.18;;;1.50;;
40765;SDS011;26474;52.556;13.420;2022-07-10T09:57:59;3.13;;;1.33;;
40765;SDS011;26474;52.556;13.420;2022-07-10T10:00:28;4.37;;;1.60;;
40765;SDS011;26474;52.556;13.420;2022-07-10T10:02:57;4.32;;;1.70;;
40765;SDS011;26474;52.556;13.420;2022-07-10T10:05:35;3.53;;;1.52;;
40765;SDS011;26474;52.556;13.420;2022-07-10T10:08:24;4.05;;;1.67;;
40765;SDS011;26474;52.556;13.420;2022-07-10T10:10:53;4.00;;;1.58;;
40765;SDS011;26474;52.556;13.420;2022-07-10T10:13:23;4.25;;;1.50;;
40765;SDS011;26474;52.556;13.420;2022-07-10T10:15:54;2.03;;;1.40;;
40765;SDS011;26474;52.556;13.420;2022-07-10T10:18:22;5.35;;;1.83;;
40765;SDS011;26474;52.556;13.420;2022-07-10T10:20:50;2.50;;;1.40;;
40765;SDS011;26474;52.556;13.420;2022-07-10T10:23:23;2.85;;;1.20;;
40765;SDS011;26474;52.556;13.420;2022-07-10T10:25:55;1.83;;;1.45;;
40765;SDS011;26474;52.556;13.420;2022-07-10T10:28:23;2.95;;;1.60;;
40765;SDS011;26474;52.556;13.420;2022-07-10T10:30:52;3.45;;;1.40;;
40765;SDS011;26474;52.556;13.420;2022-07-10T10:35:57;3.03;;;1.30;;
40765;SDS011;26474;52.556;13.420;2022-07-10T10:38:24;3.43;;;1.37;;
40765;SDS011;26474;52.556;13.420;2022-07-10T10:40:51;2.78;;;1.20;;
40765;SDS011;26474;52.556;13.420;2022-07-10T10:43:18;3.22;;;1.40;;
40765;SDS011;26474;52.556;13.420;2022-07-10T10:45:50;3.57;;;1.40;;
40765;SDS011;26474;52.556;13.420;2022-07-10T10:48:18;6.32;;;1.70;;
40765;SDS011;26474;52.556;13.420;2022-07-10T10:51:04;4.53;;;1.67;;
40765;SDS011;26474;52.556;13.420;2022-07-10T10:53:30;3.78;;;1.45;;
40765;SDS011;26474;52.556;13.420;2022-07-10T10:56:20;4.70;;;1.42;;
40765;SDS011;26474;52.556;13.420;2022-07-10T10:58:44;3.35;;;1.40;;
40765;SDS011;26474;52.556;13.420;2022-07-10T11:09:28;3.42;;;1.33;;
40765;SDS011;26474;52.556;13.420;2022-07-10T11:14:33;3.40;;;1.40;;
40765;SDS011;26474;52.556;13.420;2022-07-10T11:17:02;2.33;;;1.40;;
40765;SDS011;26474;52.556;13.420;2022-07-10T11:19:30;3.85;;;1.55;;
40765;SDS011;26474;52.556;13.420;2022-07-10T11:24:51;4.15;;;1.70;;
40765;SDS011;26474;52.556;13.420;2022-07-10T11:30:23;3.60;;;1.40;;
40765;SDS011;26474;52.556;13.420;2022-07-10T11:32:50;5.20;;;1.42;;
40765;SDS011;26474;52.556;13.420;2022-07-10T11:35:17;3.92;;;1.52;;
40765;SDS011;26474;52.556;13.420;2022-07-10T11:37:48;3.65;;;1.70;;
40765;SDS011;26474;52.556;13.420;2022-07-10T11:40:18;4.47;;;1.80;;
40765;SDS011;26474;52.556;13.420;2022-07-10T11:42:49;3.88;;;1.45;;
40765;SDS011;26474;52.556;13.420;2022-07-10T11:45:24;3.33;;;1.60;;
40765;SDS011;26474;52.556;13.420;2022-07-10T11:47:51;2.88;;;1.40;;
40765;SDS011;26474;52.556;13.420;2022-07-10T11:50:17;3.13;;;1.27;;
40765;SDS011;26474;52.556;13.420;2022-07-10T11:52:45;2.58;;;1.33;;
40765;SDS011;26474;52.556;13.420;2022-07-10T11:55:19;5.25;;;1.60;;
40765;SDS011;26474;52.556;13.420;2022-07-10T11:57:47;2.85;;;1.48;;
40765;SDS011;26474;52.556;13.420;2022-07-10T12:00:21;3.53;;;1.48;;
40765;SDS011;26474;52.556;13.420;2022-07-10T12:02:53;4.57;;;1.63;;
40765;SDS011;26474;52.556;13.420;2022-07-10T12:05:30;2.75;;;1.38;;
40765;SDS011;26474;52.556;13.420;2022-07-10T12:08:01;4.68;;;1.70;;
40765;SDS011;26474;52.556;13.420;2022-07-10T12:10:29;3.25;;;1.40;;
40765;SDS011;26474;52.556;13.420;2022-07-10T12:13:10;3.78;;;1.33;;
40765;SDS011;26474;52.556;13.420;2022-07-10T12:15:39;3.72;;;1.60;;
40765;SDS011;26474;52.556;13.420;2022-07-10T12:18:07;3.15;;;1.38;;
40765;SDS011;26474;52.556;13.420;2022-07-10T12:20:35;1.65;;;1.10;;
40765;SDS011;26474;52.556;13.420;2022-07-10T12:23:03;4.35;;;1.50;;
40765;SDS011;26474;52.556;13.420;2022-07-10T12:25:31;4.82;;;1.80;;
40765;SDS011;26474;52.556;13.420;2022-07-10T12:27:58;2.38;;;1.10;;
40765;SDS011;26474;52.556;13.420;2022-07-10T12:30:43;3.35;;;1.30;;
40765;SDS011;26474;52.556;13.420;2022-07-10T12:33:14;3.45;;;1.52;;
40765;SDS011;26474;52.556;13.420;2022-07-10T12:38:23;2.20;;;1.17;;
40765;SDS011;26474;52.556;13.420;2022-07-10T12:40:58;1.88;;;1.30;;
40765;SDS011;26474;52.556;13.420;2022-07-10T12:43:33;4.15;;;1.60;;
40765;SDS011;26474;52.556;13.420;2022-07-10T12:48:42;4.03;;;1.30;;
40765;SDS011;26474;52.556;13.420;2022-07-10T12:51:23;3.92;;;1.45;;
40765;SDS011;26474;52.556;13.420;2022-07-10T12:53:51;2.03;;;1.05;;
40765;SDS011;26474;52.556;13.420;2022-07-10T12:56:34;3.72;;;1.40;;
40765;SDS011;26474;52.556;13.420;2022-07-10T12:59:03;2.55;;;1.20;;
40765;SDS011;26474;52.556;13.420;2022-07-10T13:01:44;1.88;;;1.13;;
40765;SDS011;26474;52.556;13.420;2022-07-10T13:04:11;3.47;;;1.50;;
40765;SDS011;26474;52.556;13.420;2022-07-10T13:06:38;6.45;;;1.63;;
40765;SDS011;26474;52.556;13.420;2022-07-10T13:11:46;3.33;;;1.50;;
40765;SDS011;26474;52.556;13.420;2022-07-10T13:14:12;4.20;;;1.38;;
40765;SDS011;26474;52.556;13.420;2022-07-10T13:16:39;5.15;;;1.60;;
40765;SDS011;26474;52.556;13.420;2022-07-10T13:19:06;2.97;;;1.65;;
40765;SDS011;26474;52.556;13.420;2022-07-10T13:21:32;3.25;;;1.48;;
40765;SDS011;26474;52.556;13.420;2022-07-10T13:23:59;7.43;;;1.70;;
40765;SDS011;26474;52.556;13.420;2022-07-10T13:26:25;4.85;;;1.70;;
40765;SDS011;26474;52.556;13.420;2022-07-10T13:28:52;2.47;;;1.50;;
40765;SDS011;26474;52.556;13.420;2022-07-10T13:31:19;2.58;;;1.50;;
40765;SDS011;26474;52.556;13.420;2022-07-10T13:33:45;2.58;;;1.35;;
40765;SDS011;26474;52.556;13.420;2022-07-10T13:36:11;3.10;;;1.50;;
40765;SDS011;26474;52.556;13.420;2022-07-10T13:38:38;3.08;;;1.33;;
40765;SDS011;26474;52.556;13.420;2022-07-10T13:41:05;2.08;;;1.10;;
40765;SDS011;26474;52.556;13.420;2022-07-10T13:43:31;3.00;;;1.17;;
40765;SDS011;26474;52.556;13.420;2022-07-10T13:45:58;2.67;;;1.20;;
40765;SDS011;26474;52.556;13.420;2022-07-10T13:48:25;3.15;;;1.58;;
40765;SDS011;26474;52.556;13.420;2022-07-10T13:50:52;2.28;;;1.20;;
40765;SDS011;26474;52.556;13.420;2022-07-10T13:53:19;2.47;;;1.45;;
40765;SDS011;26474;52.556;13.420;2022-07-10T13:55:46;4.03;;;1.40;;
40765;SDS011;26474;52.556;13.420;2022-07-10T13:58:13;2.97;;;1.40;;
40765;SDS011;26474;52.556;13.420;2022-07-10T14:00:40;3.13;;;1.40;;
40765;SDS011;26474;52.556;13.420;2022-07-10T14:03:07;2.55;;;0.98;;
40765;SDS011;26474;52.556;13.420;2022-07-10T14:05:33;4.45;;;1.50;;
40765;SDS011;26474;52.556;13.420;2022-07-10T14:08:00;2.17;;;1.20;;
40765;SDS011;26474;52.556;13.420;2022-07-10T14:10:27;1.45;;;0.90;;
40765;SDS011;26474;52.556;13.420;2022-07-10T14:12:53;1.77;;;1.00;;
40765;SDS011;26474;52.556;13.420;2022-07-10T14:15:20;1.90;;;1.10;;
40765;SDS011;26474;52.556;13.420;2022-07-10T14:17:47;2.35;;;1.10;;
40765;SDS011;26474;52.556;13.420;2022-07-10T14:20:14;2.50;;;1.02;;
40765;SDS011;26474;52.556;13.420;2022-07-10T14:22:41;2.72;;;1.17;;
40765;SDS011;26474;52.556;13.420;2022-07-10T14:25:09;3.20;;;1.20;;
40765;SDS011;26474;52.556;13.420;2022-07-10T14:27:36;3.17;;;1.10;;
40765;SDS011;26474;52.556;13.420;2022-07-10T14:30:03;2.38;;;1.30;;
40765;SDS011;26474;52.556;13.420;2022-07-10T14:32:30;3.75;;;1.33;;
40765;SDS011;26474;52.556;13.420;2022-07-10T14:34:57;3.92;;;1.20;;
40765;SDS011;26474;52.556;13.420;2022-07-10T14:37:23;2.03;;;1.00;;
40765;SDS011;26474;52.556;13.420;2022-07-10T14:39:50;2.97;;;1.10;;
40765;SDS011;26474;52.556;13.420;2022-07-10T14:42:16;2.35;;;0.88;;
40765;SDS011;26474;52.556;13.420;2022-07-10T14:44:42;2.20;;;0.95;;
40765;SDS011;26474;52.556;13.420;2022-07-10T14:47:09;3.83;;;1.35;;
40765;SDS011;26474;52.556;13.420;2022-07-10T14:49:35;3.03;;;1.10;;
40765;SDS011;26474;52.556;13.420;2022-07-10T14:52:02;3.03;;;1.05;;
40765;SDS011;26474;52.556;13.420;2022-07-10T14:54:29;3.90;;;1.35;;
40765;SDS011;26474;52.556;13.420;2022-07-10T14:56:56;4.75;;;1.20;;
40765;SDS011;26474;52.556;13.420;2022-07-10T14:59:29;3.05;;;1.20;;
40765;SDS011;26474;52.556;13.420;2022-07-10T15:01:55;1.90;;;0.98;;
40765;SDS011;26474;52.556;13.420;2022-07-10T15:04:21;1.98;;;1.02;;
40765;SDS011;26474;52.556;13.420;2022-07-10T15:06:48;2.63;;;1.15;;
40765;SDS011;26474;52.556;13.420;2022-07-10T15:09:14;2.40;;;1.17;;
40765;SDS011;26474;52.556;13.420;2022-07-10T15:11:41;2.03;;;1.17;;
40765;SDS011;26474;52.556;13.420;2022-07-10T15:14:07;3.40;;;1.40;;
40765;SDS011;26474;52.556;13.420;2022-07-10T15:16:34;2.38;;;1.20;;
40765;SDS011;26474;52.556;13.420;2022-07-10T15:19:00;2.40;;;1.17;;
40765;SDS011;26474;52.556;13.420;2022-07-10T15:21:27;2.58;;;1.40;;
40765;SDS011;26474;52.556;13.420;2022-07-10T15:23:54;2.72;;;1.38;;
40765;SDS011;26474;52.556;13.420;2022-07-10T15:26:21;2.03;;;1.20;;